createdAt,value
2022-09-28T00:00:03.453Z,1.96
2022-09-28T00:01:03.197Z,1.99
2022-09-28T00:02:03.802Z,1.98
2022-09-28T00:03:03.412Z,2.00
2022-09-28T00:04:03.162Z,1.94
2022-09-28T00:05:03.112Z,2.00
2022-09-28T00:06:03.504Z,1.96
2022-09-28T00:07:03.066Z,1.93
2022-09-28T00:08:02.774Z,1.92
2022-09-28T00:09:02.631Z,1.92
2022-09-28T00:10:02.776Z,1.96
2022-09-28T00:11:02.487Z,1.96
2022-09-28T00:12:03.547Z,1.96
2022-09-28T00:13:03.295Z,1.97
2022-09-28T00:14:03.046Z,1.91
2022-09-28T00:15:03.526Z,1.91
2022-09-28T00:16:03.344Z,1.92
2022-09-28T00:17:03.534Z,1.94
2022-09-28T00:18:03.505Z,1.92
2022-09-28T00:19:03.510Z,1.93
2022-09-28T00:20:03.198Z,1.90
2022-09-28T00:21:03.372Z,1.97
2022-09-28T00:22:02.724Z,1.92
2022-09-28T00:23:02.593Z,1.93
2022-09-28T00:24:02.314Z,1.93
2022-09-28T00:25:02.789Z,1.90
2022-09-28T00:26:02.168Z,1.90
2022-09-28T00:27:03.247Z,1.90
2022-09-28T00:28:02.775Z,1.91
2022-09-28T00:29:02.945Z,1.90
2022-09-28T00:30:03.291Z,1.93
2022-09-28T00:31:02.974Z,1.89
2022-09-28T00:32:02.931Z,1.90
2022-09-28T00:33:03.382Z,1.90
2022-09-28T00:34:03.114Z,1.90
2022-09-28T00:35:02.904Z,1.92
2022-09-28T00:36:03.309Z,1.89
2022-09-28T00:37:03.723Z,1.90
2022-09-28T00:38:03.613Z,1.88
2022-09-28T00:39:03.346Z,1.88
2022-09-28T00:40:03.673Z,1.88
2022-09-28T00:41:03.130Z,1.88
2022-09-28T00:42:03.218Z,1.84
2022-09-28T00:43:02.778Z,1.90
2022-09-28T00:44:03.351Z,1.89
2022-09-28T00:45:02.822Z,1.90
2022-09-28T00:46:02.648Z,1.88
2022-09-28T00:47:03.518Z,1.88
2022-09-28T00:48:03.594Z,1.87
2022-09-28T00:49:03.287Z,1.89
2022-09-28T00:50:03.679Z,1.87
2022-09-28T00:51:03.369Z,1.83
2022-09-28T00:52:02.836Z,1.87
2022-09-28T00:53:02.812Z,1.86
2022-09-28T00:54:03.211Z,1.86
2022-09-28T00:55:03.434Z,1.84
2022-09-28T00:56:02.878Z,1.90
2022-09-28T00:57:02.318Z,1.88
2022-09-28T00:58:02.726Z,1.83
2022-09-28T00:59:02.513Z,1.83
2022-09-28T01:00:02.237Z,1.83
2022-09-28T01:01:02.724Z,1.83
2022-09-28T01:02:02.640Z,1.87
2022-09-28T01:03:02.504Z,1.86
2022-09-28T01:04:02.967Z,1.83
2022-09-28T01:05:02.647Z,1.82
2022-09-28T01:06:02.418Z,1.86
2022-09-28T01:07:03.205Z,1.85
2022-09-28T01:08:03.061Z,1.83
2022-09-28T01:09:02.753Z,1.84
2022-09-28T01:10:03.201Z,1.83
2022-09-28T01:11:03.041Z,1.86
2022-09-28T01:12:02.661Z,1.83
2022-09-28T01:13:02.440Z,1.84
2022-09-28T01:14:02.896Z,1.83
2022-09-28T01:15:02.669Z,1.83
2022-09-28T01:16:02.424Z,1.83
2022-09-28T01:17:02.879Z,1.84
2022-09-28T01:18:03.335Z,1.81
2022-09-28T01:19:02.727Z,1.81
2022-09-28T01:20:02.818Z,1.85
2022-09-28T01:21:03.090Z,1.82
2022-09-28T01:22:02.579Z,1.81
2022-09-28T01:23:02.330Z,1.82
2022-09-28T01:24:02.781Z,1.86
2022-09-28T01:25:02.533Z,1.81
2022-09-28T01:26:02.874Z,1.80
2022-09-28T01:27:02.645Z,1.83
2022-09-28T01:28:02.421Z,1.81
2022-09-28T01:29:02.873Z,1.80
2022-09-28T01:30:02.653Z,1.82
2022-09-28T01:31:02.438Z,1.81
2022-09-28T01:32:02.977Z,1.80
2022-09-28T01:33:02.745Z,1.81
2022-09-28T01:34:03.176Z,1.83
2022-09-28T01:35:02.878Z,1.79
2022-09-28T01:36:03.290Z,1.81
2022-09-28T01:37:02.226Z,1.82
2022-09-28T01:38:02.661Z,1.80
2022-09-28T01:39:02.374Z,1.77
2022-09-28T01:40:02.191Z,1.79
2022-09-28T01:41:02.604Z,1.75
2022-09-28T01:42:03.095Z,1.81
2022-09-28T01:43:02.801Z,1.80
2022-09-28T01:44:03.214Z,1.77
2022-09-28T01:45:02.973Z,1.78
2022-09-28T01:46:03.413Z,1.80
2022-09-28T01:47:02.572Z,1.75
2022-09-28T01:48:02.930Z,1.81
2022-09-28T01:49:02.415Z,1.79
2022-09-28T01:50:02.444Z,1.79
2022-09-28T01:51:02.655Z,1.80
2022-09-28T01:52:03.073Z,1.81
2022-09-28T01:53:02.800Z,1.79
2022-09-28T01:54:03.045Z,1.82
2022-09-28T01:55:02.868Z,1.78
2022-09-28T01:56:03.323Z,1.78
2022-09-28T01:57:02.771Z,1.82
2022-09-28T01:58:02.261Z,1.80
2022-09-28T01:59:02.663Z,1.81
2022-09-28T02:00:02.342Z,1.75
2022-09-28T02:01:02.171Z,1.83
2022-09-28T02:02:02.613Z,1.78
2022-09-28T02:03:02.759Z,1.79
2022-09-28T02:04:02.760Z,1.79
2022-09-28T02:05:02.490Z,1.76
2022-09-28T02:06:02.222Z,1.77
2022-09-28T02:07:02.728Z,1.79
2022-09-28T02:09:02.854Z,1.79
2022-09-28T02:10:02.315Z,1.75
2022-09-28T02:11:02.699Z,1.75
2022-09-28T02:12:03.070Z,1.75
2022-09-28T02:13:02.764Z,1.80
2022-09-28T02:14:02.828Z,1.79
2022-09-28T02:15:03.218Z,1.81
2022-09-28T02:16:02.981Z,1.77
2022-09-28T02:17:03.404Z,1.79
2022-09-28T02:18:03.498Z,1.77
2022-09-28T02:19:03.211Z,1.72
2022-09-28T02:20:03.593Z,1.79
2022-09-28T02:21:03.069Z,1.76
2022-09-28T02:22:03.482Z,1.73
2022-09-28T02:23:03.226Z,1.78
2022-09-28T02:24:03.656Z,1.78
2022-09-28T02:25:03.357Z,1.72
2022-09-28T02:26:03.086Z,1.74
2022-09-28T02:27:03.504Z,1.74
2022-09-28T02:28:03.227Z,1.79
2022-09-28T02:29:03.630Z,1.80
2022-09-28T02:30:03.337Z,1.79
2022-09-28T02:31:03.792Z,1.75
2022-09-28T02:32:03.116Z,1.79
2022-09-28T02:33:02.851Z,1.79
2022-09-28T02:34:03.185Z,1.76
2022-09-28T02:35:02.875Z,1.78
2022-09-28T02:36:03.315Z,1.77
2022-09-28T02:37:03.734Z,1.78
2022-09-28T02:38:03.255Z,1.73
2022-09-28T02:39:03.037Z,1.77
2022-09-28T02:40:03.498Z,1.73
2022-09-28T02:41:03.277Z,1.75
2022-09-28T02:42:02.776Z,1.74
2022-09-28T02:43:02.610Z,1.73
2022-09-28T02:44:02.391Z,1.75
2022-09-28T02:45:02.831Z,1.74
2022-09-28T02:46:02.432Z,1.74
2022-09-28T02:47:02.918Z,1.77
2022-09-28T02:48:02.663Z,1.79
2022-09-28T02:49:20.243Z,1.76
2022-09-28T02:50:02.600Z,1.74
2022-09-28T02:51:02.859Z,1.73
2022-09-28T02:52:02.857Z,1.75
2022-09-28T02:53:03.282Z,1.78
2022-09-28T02:54:03.093Z,1.74
2022-09-28T02:55:02.822Z,1.76
2022-09-28T02:56:03.230Z,1.72
2022-09-28T02:57:02.255Z,1.73
2022-09-28T02:58:02.730Z,1.77
2022-09-28T02:59:02.200Z,1.74
2022-09-28T03:00:02.615Z,1.80
2022-09-28T03:01:02.513Z,1.74
2022-09-28T03:02:03.661Z,1.74
2022-09-28T03:03:03.435Z,1.75
2022-09-28T03:04:03.841Z,1.77
2022-09-28T03:05:03.533Z,1.77
2022-09-28T03:06:03.335Z,1.73
2022-09-28T03:07:03.533Z,1.74
2022-09-28T03:08:03.157Z,1.71
2022-09-28T03:09:03.001Z,1.73
2022-09-28T03:10:03.445Z,1.72
2022-09-28T03:11:03.214Z,1.72
2022-09-28T03:12:03.204Z,1.74
2022-09-28T03:13:03.579Z,1.75
2022-09-28T03:14:03.447Z,1.73
2022-09-28T03:15:03.660Z,1.78
2022-09-28T03:16:03.126Z,1.74
2022-09-28T03:17:03.298Z,1.74
2022-09-28T03:18:02.841Z,1.72
2022-09-28T03:19:03.257Z,1.75
2022-09-28T03:20:02.779Z,1.73
2022-09-28T03:21:03.168Z,1.78
2022-09-28T03:22:03.555Z,1.72
2022-09-28T03:23:26.409Z,1.73
2022-09-28T03:24:03.439Z,1.74
2022-09-28T03:25:03.151Z,1.75
2022-09-28T03:26:03.510Z,1.77
2022-09-28T03:27:03.658Z,1.72
2022-09-28T03:28:03.121Z,1.70
2022-09-28T03:29:03.154Z,1.71
2022-09-28T03:30:03.268Z,1.74
2022-09-28T03:31:03.086Z,1.74
2022-09-28T03:32:02.560Z,1.71
2022-09-28T03:33:02.965Z,1.74
2022-09-28T03:34:02.660Z,1.72
2022-09-28T03:35:03.180Z,1.73
2022-09-28T03:36:02.671Z,1.74
2022-09-28T03:37:03.082Z,1.71
2022-09-28T03:38:03.483Z,1.74
2022-09-28T03:39:03.164Z,1.78
2022-09-28T03:40:03.482Z,1.72
2022-09-28T03:41:03.265Z,1.73
2022-09-28T03:42:02.745Z,1.78
2022-09-28T03:43:02.711Z,1.71
2022-09-28T03:44:03.121Z,1.69
2022-09-28T03:45:02.692Z,1.75
2022-09-28T03:46:03.445Z,1.73
2022-09-28T03:47:02.960Z,1.73
2022-09-28T03:48:03.071Z,1.74
2022-09-28T03:49:03.524Z,1.68
2022-09-28T03:50:02.980Z,1.73
2022-09-28T03:51:03.362Z,1.74
2022-09-28T03:52:03.067Z,1.70
2022-09-28T03:53:03.475Z,1.69
2022-09-28T03:54:03.205Z,1.72
2022-09-28T03:55:03.597Z,1.68
2022-09-28T03:56:03.095Z,1.68
2022-09-28T03:57:02.477Z,1.68
2022-09-28T03:58:02.970Z,1.72
2022-09-28T03:59:02.914Z,1.71
2022-09-28T04:00:02.682Z,1.73
2022-09-28T04:01:02.709Z,2.97
2022-09-28T04:02:02.638Z,3.19
2022-09-28T04:03:02.746Z,3.34
2022-09-28T04:04:02.473Z,3.47
2022-09-28T04:05:02.973Z,3.57
2022-09-28T04:06:02.705Z,3.63
2022-09-28T04:07:03.066Z,3.69
2022-09-28T04:08:03.578Z,3.80
2022-09-28T04:09:03.082Z,3.90
2022-09-28T04:10:03.532Z,3.97
2022-09-28T04:11:03.092Z,4.02
2022-09-28T04:12:04.199Z,4.08
2022-09-28T04:13:02.417Z,4.06
2022-09-28T04:14:02.758Z,4.12
2022-09-28T04:15:02.553Z,4.15
2022-09-28T04:16:02.979Z,4.17
2022-09-28T04:17:02.656Z,4.21
2022-09-28T04:18:03.050Z,4.22
2022-09-28T04:19:02.504Z,4.23
2022-09-28T04:20:02.877Z,4.27
2022-09-28T04:21:02.671Z,4.32
2022-09-28T04:22:03.457Z,4.33
2022-09-28T04:23:02.860Z,4.31
2022-09-28T04:24:03.460Z,4.38
2022-09-28T04:25:03.071Z,4.41
2022-09-28T04:26:03.536Z,4.43
2022-09-28T04:27:02.579Z,4.47
2022-09-28T04:28:03.080Z,4.48
2022-09-28T04:29:06.330Z,4.48
2022-09-28T04:30:03.165Z,4.45
2022-09-28T04:31:03.014Z,4.52
2022-09-28T04:32:02.733Z,4.52
2022-09-28T04:33:03.088Z,4.50
2022-09-28T04:34:02.734Z,4.52
2022-09-28T04:35:03.466Z,4.55
2022-09-28T04:36:03.040Z,4.58
2022-09-28T04:37:03.402Z,4.55
2022-09-28T04:38:03.466Z,4.57
2022-09-28T04:39:03.767Z,4.57
2022-09-28T04:40:03.787Z,4.58
2022-09-28T04:41:03.375Z,4.58
2022-09-28T04:42:02.946Z,4.60
2022-09-28T04:43:02.678Z,4.61
2022-09-28T04:44:02.917Z,4.60
2022-09-28T04:45:02.990Z,4.62
2022-09-28T04:46:02.814Z,4.62
2022-09-28T04:47:05.315Z,4.61
2022-09-28T04:48:02.972Z,4.63
2022-09-28T04:49:03.618Z,4.67
2022-09-28T04:50:03.639Z,4.63
2022-09-28T04:51:03.100Z,4.65
2022-09-28T04:52:03.546Z,4.62
2022-09-28T04:53:03.758Z,4.63
2022-09-28T04:54:03.471Z,4.62
2022-09-28T04:55:03.374Z,4.65
2022-09-28T04:56:03.790Z,4.66
2022-09-28T04:57:03.610Z,4.64
2022-09-28T04:58:03.350Z,4.65
2022-09-28T04:59:03.360Z,4.64
2022-09-28T05:00:03.812Z,4.67
2022-09-28T05:01:03.938Z,4.70
2022-09-28T05:02:03.247Z,4.67
2022-09-28T05:03:03.049Z,4.68
2022-09-28T05:04:02.825Z,4.67
2022-09-28T05:05:02.688Z,4.69
2022-09-28T05:06:03.112Z,4.71
2022-09-28T05:07:02.575Z,4.69
2022-09-28T05:08:02.772Z,4.70
2022-09-28T05:09:02.543Z,4.70
2022-09-28T05:10:02.985Z,4.70
2022-09-28T05:11:02.456Z,4.69
2022-09-28T05:12:02.946Z,4.69
2022-09-28T05:13:02.819Z,4.71
2022-09-28T05:14:02.716Z,4.71
2022-09-28T05:15:02.491Z,4.71
2022-09-28T05:16:05.373Z,4.76
2022-09-28T05:17:03.002Z,4.78
2022-09-28T05:18:02.890Z,4.76
2022-09-28T05:19:03.250Z,4.75
2022-09-28T05:20:03.085Z,4.77
2022-09-28T05:21:03.257Z,4.77
2022-09-28T05:22:02.819Z,4.77
2022-09-28T05:23:02.559Z,4.76
2022-09-28T05:24:02.358Z,4.07
2022-09-28T05:25:02.912Z,3.89
2022-09-28T05:26:02.718Z,3.75
2022-09-28T05:27:03.299Z,3.66
2022-09-28T05:28:03.424Z,3.57
2022-09-28T05:29:03.090Z,3.50
2022-09-28T05:30:03.313Z,3.44
2022-09-28T05:31:03.089Z,3.38
2022-09-28T05:32:02.705Z,3.30
2022-09-28T05:33:02.349Z,3.26
2022-09-28T05:34:02.400Z,3.24
2022-09-28T05:35:02.348Z,3.18
2022-09-28T05:36:02.278Z,3.12
2022-09-28T05:37:02.237Z,3.09
2022-09-28T05:38:02.171Z,3.06
2022-09-28T05:39:02.639Z,3.01
2022-09-28T05:40:02.474Z,2.99
2022-09-28T05:41:06.424Z,2.96
2022-09-28T05:42:02.416Z,2.95
2022-09-28T05:43:02.542Z,2.91
2022-09-28T05:44:02.428Z,2.88
2022-09-28T05:45:02.261Z,2.83
2022-09-28T05:46:02.733Z,2.83
2022-09-28T05:47:03.343Z,2.79
2022-09-28T05:48:02.803Z,2.76
2022-09-28T05:49:03.083Z,2.75
2022-09-28T05:50:03.426Z,2.71
2022-09-28T05:51:02.960Z,2.72
2022-09-28T05:52:03.044Z,2.69
2022-09-28T05:53:02.793Z,2.68
2022-09-28T05:54:05.903Z,2.67
2022-09-28T05:55:02.717Z,2.61
2022-09-28T05:56:02.441Z,2.63
2022-09-28T05:57:02.469Z,2.60
2022-09-28T05:58:03.130Z,2.59
2022-09-28T05:59:02.762Z,2.56
2022-09-28T06:00:02.742Z,2.55
2022-09-28T06:01:02.821Z,2.53
2022-09-28T06:02:01.848Z,2.53
2022-09-28T06:03:05.462Z,2.52
2022-09-28T06:04:02.103Z,2.49
2022-09-28T06:05:02.020Z,2.48
2022-09-28T06:06:02.018Z,2.48
2022-09-28T06:07:02.095Z,2.44
2022-09-28T06:08:02.390Z,2.43
2022-09-28T06:09:02.294Z,2.44
2022-09-28T06:10:02.326Z,2.45
2022-09-28T06:11:02.229Z,2.39
2022-09-28T06:12:02.432Z,2.41
2022-09-28T06:13:02.198Z,2.39
2022-09-28T06:14:02.129Z,2.39
2022-09-28T06:15:02.696Z,2.38
2022-09-28T06:16:02.397Z,2.36
2022-09-28T06:17:02.326Z,2.36
2022-09-28T06:18:02.786Z,2.34
2022-09-28T06:19:02.526Z,2.31
2022-09-28T06:20:02.417Z,2.32
2022-09-28T06:21:02.362Z,2.29
2022-09-28T06:22:02.321Z,2.29
2022-09-28T06:23:02.899Z,2.27
2022-09-28T06:24:02.650Z,2.29
2022-09-28T06:25:02.543Z,2.27
2022-09-28T06:26:02.541Z,2.27
2022-09-28T06:27:02.986Z,2.25
2022-09-28T06:28:02.971Z,2.24
2022-09-28T06:29:02.970Z,2.25
2022-09-28T06:30:02.878Z,2.23
2022-09-28T06:31:02.907Z,2.23
2022-09-28T06:32:01.901Z,2.22
2022-09-28T06:33:02.411Z,2.21
2022-09-28T06:34:02.048Z,2.18
2022-09-28T06:35:01.890Z,2.19
2022-09-28T06:36:02.342Z,2.18
2022-09-28T06:37:02.701Z,2.18
2022-09-28T06:38:02.157Z,2.20
2022-09-28T06:39:02.139Z,2.16
2022-09-28T06:40:02.124Z,2.15
2022-09-28T06:41:02.621Z,2.14
2022-09-28T06:42:02.156Z,2.16
2022-09-28T06:43:01.815Z,2.16
2022-09-28T06:44:02.349Z,2.14
2022-09-28T06:45:02.169Z,2.13
2022-09-28T06:46:01.812Z,2.12
2022-09-28T06:47:02.082Z,2.14
2022-09-28T06:48:02.286Z,2.11
2022-09-28T06:49:02.194Z,2.12
2022-09-28T06:50:02.181Z,2.12
2022-09-28T06:51:02.075Z,2.10
2022-09-28T06:52:02.013Z,2.11
2022-09-28T06:53:02.448Z,2.08
2022-09-28T06:54:02.529Z,2.08
2022-09-28T06:55:02.233Z,2.09
2022-09-28T06:56:01.862Z,2.08
2022-09-28T06:57:02.439Z,2.06
2022-09-28T06:58:02.384Z,2.08
2022-09-28T06:59:02.930Z,2.08
2022-09-28T07:00:02.906Z,2.06
2022-09-28T07:01:02.783Z,2.04
2022-09-28T07:02:01.996Z,2.05
2022-09-28T07:03:01.950Z,2.03
2022-09-28T07:04:01.970Z,2.03
2022-09-28T07:05:01.954Z,2.02
2022-09-28T07:06:01.834Z,2.04
2022-09-28T07:07:02.525Z,2.03
2022-09-28T07:08:02.507Z,1.99
2022-09-28T07:09:19.086Z,1.99
2022-09-28T07:10:02.364Z,2.01
2022-09-28T07:11:02.930Z,1.98
2022-09-28T07:12:02.508Z,1.96
2022-09-28T07:13:02.689Z,1.99
2022-09-28T07:14:02.903Z,1.97
2022-09-28T07:15:02.607Z,1.98
2022-09-28T07:16:02.543Z,1.98
2022-09-28T07:17:13.301Z,1.94
2022-09-28T07:18:03.974Z,1.94
2022-09-28T07:19:02.562Z,1.94
2022-09-28T07:20:13.697Z,1.94
2022-09-28T07:21:02.987Z,1.92
2022-09-28T07:22:05.446Z,1.93
2022-09-28T07:23:15.054Z,1.92
2022-09-28T07:24:02.191Z,1.91
2022-09-28T07:25:02.149Z,1.89
2022-09-28T07:26:01.825Z,1.90
2022-09-28T07:27:02.569Z,1.88
2022-09-28T07:28:02.949Z,1.90
2022-09-28T07:29:02.606Z,1.89
2022-09-28T07:30:02.644Z,1.90
2022-09-28T07:31:02.502Z,1.90
2022-09-28T07:32:02.178Z,1.88
2022-09-28T07:33:01.974Z,1.86
2022-09-28T07:34:01.908Z,1.88
2022-09-28T07:35:02.005Z,1.87
2022-09-28T07:36:02.252Z,1.86
2022-09-28T07:37:02.466Z,1.85
2022-09-28T07:38:02.459Z,1.87
2022-09-28T07:39:02.386Z,1.87
2022-09-28T07:40:02.252Z,1.87
2022-09-28T07:41:02.665Z,1.86
2022-09-28T07:42:03.133Z,1.82
2022-09-28T07:43:02.478Z,1.82
2022-09-28T07:44:02.345Z,1.85
2022-09-28T07:45:02.939Z,1.83
2022-09-28T07:46:02.676Z,1.81
2022-09-28T07:47:02.343Z,1.82
2022-09-28T07:48:02.805Z,1.82
2022-09-28T07:49:04.058Z,1.82
2022-09-28T07:50:02.749Z,1.83
2022-09-28T07:51:02.526Z,1.80
2022-09-28T07:52:02.241Z,1.80
2022-09-28T07:53:01.875Z,1.79
2022-09-28T07:54:02.200Z,1.78
2022-09-28T07:55:06.653Z,1.78
2022-09-28T07:56:02.048Z,1.80
2022-09-28T07:57:02.685Z,1.79
2022-09-28T07:58:02.800Z,1.80
2022-09-28T07:59:02.934Z,1.75
2022-09-28T08:00:02.550Z,1.77
2022-09-28T08:01:02.539Z,1.76
2022-09-28T08:02:02.849Z,1.77
2022-09-28T08:03:02.910Z,1.76
2022-09-28T08:04:02.870Z,1.75
2022-09-28T08:05:02.802Z,1.75
2022-09-28T08:06:02.989Z,1.75
2022-09-28T08:07:03.157Z,1.75
2022-09-28T08:08:03.629Z,1.73
2022-09-28T08:09:03.504Z,1.74
2022-09-28T08:10:03.016Z,1.72
2022-09-28T08:11:03.630Z,1.73
2022-09-28T08:12:02.333Z,1.72
2022-09-28T08:13:03.048Z,1.72
2022-09-28T08:14:02.920Z,1.74
2022-09-28T08:15:02.473Z,1.68
2022-09-28T08:16:02.393Z,1.71
2022-09-28T08:17:02.882Z,1.70
2022-09-28T08:18:02.989Z,1.70
2022-09-28T08:19:02.774Z,1.70
2022-09-28T08:20:02.572Z,1.69
2022-09-28T08:21:03.089Z,1.70
2022-09-28T08:22:03.382Z,1.70
2022-09-28T08:23:03.434Z,1.68
2022-09-28T08:24:03.642Z,1.67
2022-09-28T08:25:03.566Z,1.65
2022-09-28T08:26:03.507Z,1.65
2022-09-28T08:27:02.997Z,1.68
2022-09-28T08:28:02.590Z,1.65
2022-09-28T08:29:03.137Z,1.66
2022-09-28T08:30:03.017Z,1.65
2022-09-28T08:31:02.991Z,1.67
2022-09-28T08:32:03.549Z,1.66
2022-09-28T08:33:03.771Z,1.64
2022-09-28T08:34:03.390Z,1.65
2022-09-28T08:35:03.203Z,1.66
2022-09-28T08:36:03.778Z,1.64
2022-09-28T08:37:03.120Z,1.62
2022-09-28T08:38:03.178Z,1.63
2022-09-28T08:39:03.204Z,1.60
2022-09-28T08:40:02.745Z,1.61
2022-09-28T08:41:03.349Z,1.62
2022-09-28T08:42:03.711Z,1.63
2022-09-28T08:43:03.280Z,1.61
2022-09-28T08:44:03.814Z,1.61
2022-09-28T08:45:03.672Z,1.61
2022-09-28T08:46:03.831Z,1.65
2022-09-28T08:47:03.049Z,1.59
2022-09-28T08:48:02.953Z,1.63
2022-09-28T08:49:23.675Z,1.60
2022-09-28T08:50:02.714Z,1.60
2022-09-28T08:51:03.149Z,1.59
2022-09-28T08:52:03.385Z,1.61
2022-09-28T08:53:03.030Z,1.58
2022-09-28T08:54:03.146Z,1.59
2022-09-28T08:55:03.437Z,1.57
2022-09-28T08:56:02.997Z,1.54
2022-09-28T08:57:03.044Z,1.57
2022-09-28T08:58:02.609Z,1.57
2022-09-28T08:59:02.886Z,1.58
2022-09-28T09:00:02.788Z,1.56
2022-09-28T09:01:02.753Z,1.59
2022-09-28T09:02:02.134Z,1.55
2022-09-28T09:03:01.832Z,1.58
2022-09-28T09:04:02.097Z,1.55
2022-09-28T09:05:02.130Z,1.58
2022-09-28T09:06:01.899Z,1.58
2022-09-28T09:07:01.762Z,1.55
2022-09-28T09:08:02.355Z,1.56
2022-09-28T09:09:02.001Z,1.55
2022-09-28T09:10:01.763Z,1.57
2022-09-28T09:11:02.331Z,1.54
2022-09-28T09:12:02.017Z,1.53
2022-09-28T09:13:02.637Z,1.55
2022-09-28T09:14:02.089Z,1.57
2022-09-28T09:15:02.656Z,1.55
2022-09-28T09:16:02.327Z,1.53
2022-09-28T09:17:01.818Z,1.53
2022-09-28T09:18:01.818Z,1.51
2022-09-28T09:19:02.287Z,1.53
2022-09-28T09:20:01.796Z,1.50
2022-09-28T09:21:01.684Z,1.52
2022-09-28T09:22:02.318Z,1.51
2022-09-28T09:23:02.743Z,1.50
2022-09-28T09:24:02.547Z,1.51
2022-09-28T09:25:02.662Z,1.48
2022-09-28T09:26:02.603Z,1.49
2022-09-28T09:27:01.792Z,1.49
2022-09-28T09:28:02.033Z,1.50
2022-09-28T09:29:02.043Z,1.47
2022-09-28T09:30:01.929Z,1.48
2022-09-28T09:31:01.900Z,1.48
2022-09-28T09:32:02.470Z,1.47
2022-09-28T09:33:02.404Z,1.45
2022-09-28T09:34:02.368Z,1.48
2022-09-28T09:35:02.898Z,1.48
2022-09-28T09:36:02.711Z,1.48
2022-09-28T09:37:02.618Z,1.46
2022-09-28T09:38:03.078Z,1.48
2022-09-28T09:39:03.025Z,1.47
2022-09-28T09:40:02.835Z,1.44
2022-09-28T09:41:02.973Z,1.45
2022-09-28T09:42:02.624Z,1.45
2022-09-28T09:43:02.774Z,1.45
2022-09-28T09:44:02.654Z,1.45
2022-09-28T09:45:02.528Z,1.45
2022-09-28T09:46:03.135Z,1.45
2022-09-28T09:47:02.165Z,1.46
2022-09-28T09:48:02.624Z,1.45
2022-09-28T09:49:02.253Z,1.45
2022-09-28T09:50:05.330Z,1.45
2022-09-28T09:51:02.479Z,1.46
2022-09-28T09:52:02.324Z,1.43
2022-09-28T09:53:02.717Z,1.43
2022-09-28T09:54:02.603Z,1.44
2022-09-28T09:55:02.346Z,1.46
2022-09-28T09:56:02.236Z,1.43
2022-09-28T09:57:01.793Z,1.43
2022-09-28T09:58:01.864Z,1.44
2022-09-28T09:59:01.651Z,1.41
2022-09-28T10:00:02.221Z,1.43
2022-09-28T10:01:02.223Z,1.42
2022-09-28T10:02:02.036Z,1.43
2022-09-28T10:03:02.105Z,1.43
2022-09-28T10:04:02.056Z,1.43
2022-09-28T10:05:01.916Z,1.41
2022-09-28T10:06:01.867Z,1.42
2022-09-28T10:07:02.520Z,1.42
2022-09-28T10:08:02.636Z,1.42
2022-09-28T10:09:02.562Z,1.42
2022-09-28T10:10:02.761Z,1.43
2022-09-28T10:11:02.905Z,1.44
2022-09-28T10:12:02.166Z,1.43
2022-09-28T10:13:02.310Z,1.43
2022-09-28T10:14:02.316Z,1.42
2022-09-28T10:15:02.192Z,1.42
2022-09-28T10:16:02.029Z,1.44
2022-09-28T10:17:02.725Z,1.43
2022-09-28T10:18:02.737Z,1.41
2022-09-28T10:19:02.598Z,1.42
2022-09-28T10:20:02.896Z,1.43
2022-09-28T10:21:02.619Z,1.42
2022-09-28T10:22:02.258Z,1.44
2022-09-28T10:23:02.085Z,1.44
2022-09-28T10:24:02.020Z,1.43
2022-09-28T10:25:01.934Z,1.41
2022-09-28T10:26:02.477Z,1.44
2022-09-28T10:27:02.392Z,1.42
2022-09-28T10:28:02.259Z,1.41
2022-09-28T10:29:02.191Z,1.43
2022-09-28T10:30:02.321Z,1.43
2022-09-28T10:31:02.679Z,1.40
2022-09-28T10:32:02.446Z,1.40
2022-09-28T10:33:02.293Z,1.40
2022-09-28T10:34:02.367Z,1.38
2022-09-28T10:35:02.615Z,1.40
2022-09-28T10:36:02.693Z,1.40
2022-09-28T10:37:02.037Z,1.40
2022-09-28T10:38:02.045Z,1.39
2022-09-28T10:39:02.226Z,1.40
2022-09-28T10:40:02.194Z,1.39
2022-09-28T10:41:02.054Z,1.38
2022-09-28T10:42:02.242Z,1.39
2022-09-28T10:43:02.148Z,1.39
2022-09-28T10:44:01.913Z,1.40
2022-09-28T10:45:02.491Z,1.40
2022-09-28T10:46:02.265Z,1.39
2022-09-28T10:47:02.938Z,1.40
2022-09-28T10:48:03.141Z,1.38
2022-09-28T10:49:03.171Z,1.40
2022-09-28T10:50:02.715Z,1.40
2022-09-28T10:51:02.523Z,1.39
2022-09-28T10:52:02.150Z,1.40
2022-09-28T10:53:02.015Z,1.38
2022-09-28T10:54:02.051Z,1.39
2022-09-28T10:55:02.012Z,1.38
2022-09-28T10:56:02.340Z,1.38
2022-09-28T10:57:02.186Z,1.40
2022-09-28T10:58:02.141Z,1.39
2022-09-28T10:59:02.298Z,1.38
2022-09-28T11:00:02.198Z,1.39
2022-09-28T11:01:02.388Z,1.39
2022-09-28T11:02:03.001Z,1.39
2022-09-28T11:03:03.207Z,1.38
2022-09-28T11:04:03.166Z,1.37
2022-09-28T11:05:03.439Z,1.39
2022-09-28T11:06:03.124Z,1.38
2022-09-28T11:07:02.607Z,1.38
2022-09-28T11:08:02.749Z,1.38
2022-09-28T11:09:02.803Z,1.38
2022-09-28T11:10:02.494Z,1.38
2022-09-28T11:11:02.419Z,1.39
2022-09-28T11:12:02.967Z,1.38
2022-09-28T11:13:02.873Z,1.38
2022-09-28T11:14:03.144Z,1.37
2022-09-28T11:15:02.823Z,1.38
2022-09-28T11:16:02.666Z,1.37
2022-09-28T11:17:02.460Z,1.38
2022-09-28T11:18:02.664Z,1.38
2022-09-28T11:19:02.360Z,1.37
2022-09-28T11:20:02.110Z,1.37
2022-09-28T11:21:02.542Z,1.38
2022-09-28T11:22:02.827Z,1.37
2022-09-28T11:23:02.683Z,1.38
2022-09-28T11:24:02.723Z,1.38
2022-09-28T11:25:02.989Z,1.37
2022-09-28T11:26:02.638Z,1.38
2022-09-28T11:27:03.264Z,1.37
2022-09-28T11:28:03.163Z,1.37
2022-09-28T11:29:03.358Z,1.37
2022-09-28T11:30:02.949Z,1.37
2022-09-28T11:31:02.886Z,1.37
2022-09-28T11:32:03.421Z,1.37
2022-09-28T11:33:02.890Z,1.37
2022-09-28T11:34:02.912Z,1.37
2022-09-28T11:35:03.544Z,1.37
2022-09-28T11:36:03.480Z,1.37
2022-09-28T11:37:02.340Z,1.37
2022-09-28T11:38:02.728Z,1.37
2022-09-28T11:39:02.717Z,1.37
2022-09-28T11:40:02.593Z,1.37
2022-09-28T11:41:02.700Z,1.37
2022-09-28T11:42:03.115Z,1.37
2022-09-28T11:43:03.066Z,1.37
2022-09-28T11:44:03.019Z,1.38
2022-09-28T11:45:02.940Z,1.37
2022-09-28T11:46:02.911Z,1.37
2022-09-28T11:47:03.510Z,1.37
2022-09-28T11:48:03.485Z,1.37
2022-09-28T11:49:03.497Z,1.37
2022-09-28T11:50:03.442Z,1.37
2022-09-28T11:51:03.435Z,1.37
2022-09-28T11:52:03.087Z,1.37
2022-09-28T11:53:02.814Z,1.37
2022-09-28T11:54:02.692Z,1.37
2022-09-28T11:55:02.684Z,1.37
2022-09-28T11:56:07.906Z,1.37
2022-09-28T11:57:03.357Z,1.37
2022-09-28T11:58:03.052Z,1.37
2022-09-28T11:59:03.277Z,1.37
2022-09-28T12:00:03.206Z,1.37
2022-09-28T12:01:03.166Z,1.37
2022-09-28T12:02:01.946Z,1.37
2022-09-28T12:03:02.489Z,1.37
2022-09-28T12:04:02.355Z,1.37
2022-09-28T12:05:02.346Z,1.37
2022-09-28T12:06:02.349Z,1.37
2022-09-28T12:07:02.280Z,1.37
2022-09-28T12:08:02.734Z,1.37
2022-09-28T12:09:02.728Z,1.37
2022-09-28T12:10:02.726Z,1.37
2022-09-28T12:11:02.406Z,1.37
2022-09-28T12:12:02.750Z,1.37
2022-09-28T12:13:03.404Z,1.37
2022-09-28T12:14:03.105Z,1.37
2022-09-28T12:15:02.944Z,1.37
2022-09-28T12:16:38.905Z,1.37
2022-09-28T12:17:07.951Z,1.37
2022-09-28T12:18:03.593Z,1.37
2022-09-28T12:19:03.320Z,1.37
2022-09-28T12:20:03.294Z,1.37
2022-09-28T12:21:05.167Z,1.37
2022-09-28T12:22:03.238Z,1.37
2022-09-28T12:23:02.756Z,1.37
2022-09-28T12:24:02.739Z,1.37
2022-09-28T12:25:02.695Z,1.37
2022-09-28T12:26:02.711Z,1.37
2022-09-28T12:27:02.695Z,1.37
2022-09-28T12:28:03.531Z,1.37
2022-09-28T12:29:03.232Z,1.37
2022-09-28T12:30:03.287Z,1.37
2022-09-28T12:31:03.286Z,1.37
2022-09-28T12:32:03.263Z,1.37
2022-09-28T12:33:02.897Z,1.37
2022-09-28T12:34:02.882Z,1.37
2022-09-28T12:35:02.737Z,1.37
2022-09-28T12:36:02.665Z,1.37
2022-09-28T12:37:02.443Z,1.37
2022-09-28T12:38:03.467Z,1.37
2022-09-28T12:39:18.148Z,1.37
2022-09-28T12:40:03.297Z,1.37
2022-09-28T12:41:03.346Z,1.37
2022-09-28T12:42:03.200Z,1.37
2022-09-28T12:43:03.165Z,1.37
2022-09-28T12:44:03.133Z,1.37
2022-09-28T12:45:03.082Z,1.37
2022-09-28T12:46:12.364Z,1.37
2022-09-28T12:47:02.946Z,1.37
2022-09-28T12:48:02.827Z,1.37
2022-09-28T12:51:02.878Z,1.37
2022-09-28T12:52:03.006Z,1.37
2022-09-28T12:53:03.342Z,1.37
2022-09-28T12:54:02.426Z,1.37
2022-09-28T12:55:02.452Z,1.37
2022-09-28T12:56:02.631Z,1.37
2022-09-28T12:57:02.378Z,1.37
2022-09-28T12:58:02.976Z,1.37
2022-09-28T12:59:02.859Z,1.37
2022-09-28T13:00:02.755Z,1.37
2022-09-28T13:01:03.436Z,1.37
2022-09-28T13:02:03.088Z,1.37
2022-09-28T13:03:02.143Z,1.37
2022-09-28T13:04:01.873Z,1.37
2022-09-28T13:05:02.396Z,1.37
2022-09-28T13:06:02.129Z,1.37
2022-09-28T13:07:02.081Z,1.37
2022-09-28T13:08:02.987Z,1.37
2022-09-28T13:09:02.524Z,1.37
2022-09-28T13:10:02.489Z,1.37
2022-09-28T13:11:07.579Z,1.37
2022-09-28T13:12:02.660Z,1.37
2022-09-28T13:13:02.280Z,1.37
2022-09-28T13:14:02.162Z,1.37
2022-09-28T13:15:02.117Z,1.37
2022-09-28T13:16:02.082Z,1.37
2022-09-28T13:17:01.964Z,1.37
2022-09-28T13:18:02.330Z,1.37
2022-09-28T13:19:02.779Z,1.37
2022-09-28T13:20:02.468Z,1.37
2022-09-28T13:21:02.374Z,1.37